createdAt,value
2023-02-14T00:00:31.072Z,50.00
2023-02-14T00:02:59.822Z,51.70
2023-02-14T00:05:28.425Z,50.25
2023-02-14T00:07:58.622Z,51.00
2023-02-14T00:10:27.427Z,51.10
2023-02-14T00:12:55.932Z,50.47
2023-02-14T00:15:25.565Z,51.30
2023-02-14T00:17:56.205Z,51.80
2023-02-14T00:20:25.484Z,51.70
2023-02-14T00:22:54.459Z,53.13
2023-02-14T00:25:23.008Z,54.83
2023-02-14T00:27:51.584Z,54.30
2023-02-14T00:30:20.189Z,52.60
2023-02-14T00:32:50.315Z,56.42
2023-02-14T00:35:19.215Z,52.97
2023-02-14T00:37:48.178Z,53.15
2023-02-14T00:40:17.281Z,50.25
2023-02-14T00:42:45.931Z,53.47
2023-02-14T00:45:14.649Z,52.88
2023-02-14T00:47:43.132Z,53.50
2023-02-14T00:50:13.350Z,52.90
2023-02-14T00:52:41.831Z,54.17
2023-02-14T00:55:10.550Z,53.88
2023-02-14T00:57:39.004Z,53.67
2023-02-14T01:00:09.740Z,55.63
2023-02-14T01:02:38.562Z,54.03
2023-02-14T01:05:08.051Z,53.05
2023-02-14T01:07:38.148Z,52.78
2023-02-14T01:10:08.137Z,52.28
2023-02-14T01:12:36.554Z,54.22
2023-02-14T01:15:06.772Z,53.05
2023-02-14T01:17:35.560Z,52.08
2023-02-14T01:20:04.624Z,50.42
2023-02-14T01:22:38.599Z,51.45
2023-02-14T01:25:07.842Z,52.33
2023-02-14T01:27:36.268Z,51.10
2023-02-14T01:30:06.220Z,51.10
2023-02-14T01:32:35.308Z,50.55
2023-02-14T01:35:04.803Z,49.17
2023-02-14T01:37:33.392Z,51.03
2023-02-14T01:40:03.647Z,49.60
2023-02-14T01:42:33.918Z,49.03
2023-02-14T01:45:06.738Z,50.33
2023-02-14T01:47:40.198Z,49.58
2023-02-14T01:50:12.740Z,49.75
2023-02-14T01:52:46.671Z,47.33
2023-02-14T01:55:21.944Z,50.85
2023-02-14T02:00:41.082Z,46.78
2023-02-14T02:03:10.318Z,46.72
2023-02-14T02:05:45.547Z,50.90
2023-02-14T02:10:44.657Z,43.38
2023-02-14T02:13:18.934Z,46.00
2023-02-14T02:15:59.775Z,43.43
2023-02-14T02:18:42.647Z,43.35
2023-02-14T02:22:10.751Z,42.13
2023-02-14T02:24:52.272Z,43.08
2023-02-14T02:28:13.649Z,43.58
2023-02-14T02:31:44.821Z,44.58
2023-02-14T02:34:41.562Z,41.63
2023-02-14T02:37:34.017Z,44.33
2023-02-14T02:40:18.381Z,45.70
2023-02-14T02:43:02.064Z,45.40
2023-02-14T02:46:01.319Z,45.55
2023-02-14T02:48:40.760Z,42.50
2023-02-14T02:51:32.685Z,41.50
2023-02-14T02:54:11.762Z,40.38
2023-02-14T02:56:47.552Z,41.50
2023-02-14T02:59:20.756Z,41.00
2023-02-14T03:01:56.485Z,51.58
2023-02-14T03:04:44.974Z,47.20
2023-02-14T03:07:31.719Z,52.38
2023-02-14T03:10:06.413Z,52.28
2023-02-14T03:13:40.079Z,55.95
2023-02-14T03:16:33.275Z,49.67
2023-02-14T03:20:00.018Z,51.78
2023-02-14T03:22:49.761Z,47.03
2023-02-14T03:25:40.143Z,44.28
2023-02-14T03:28:18.963Z,49.00
2023-02-14T03:30:59.281Z,42.03
2023-02-14T03:33:36.136Z,45.85
2023-02-14T03:36:12.157Z,43.72
2023-02-14T03:38:51.354Z,42.25
2023-02-14T03:41:27.348Z,41.75
2023-02-14T03:44:00.381Z,44.13
2023-02-14T03:46:33.492Z,39.33
2023-02-14T03:49:06.868Z,40.38
2023-02-14T03:51:37.033Z,42.17
2023-02-14T03:54:10.486Z,41.60
2023-02-14T03:56:47.381Z,42.22
2023-02-14T03:59:19.582Z,39.17
2023-02-14T04:01:53.764Z,42.38
2023-02-14T04:04:27.292Z,37.53
2023-02-14T04:06:56.072Z,36.63
2023-02-14T04:09:24.586Z,39.35
2023-02-14T04:11:54.456Z,36.67
2023-02-14T04:14:22.810Z,38.50
2023-02-14T04:17:08.743Z,40.17
2023-02-14T04:19:37.032Z,39.78
2023-02-14T04:22:05.350Z,34.85
2023-02-14T04:24:33.610Z,36.65
2023-02-14T04:27:13.598Z,37.53
2023-02-14T04:29:45.047Z,36.45
2023-02-14T04:32:16.698Z,36.25
2023-02-14T04:34:45.631Z,35.78
2023-02-14T04:37:18.063Z,35.42
2023-02-14T04:39:46.780Z,36.55
2023-02-14T04:42:17.584Z,35.67
2023-02-14T04:44:45.893Z,37.03
2023-02-14T04:47:15.757Z,38.50
2023-02-14T04:49:44.374Z,35.95
2023-02-14T04:52:13.240Z,38.95
2023-02-14T04:54:41.624Z,38.85
2023-02-14T04:57:10.424Z,42.25
2023-02-14T04:59:40.146Z,44.58
2023-02-14T05:02:08.652Z,41.28
2023-02-14T05:04:37.200Z,46.95
2023-02-14T05:07:05.757Z,45.65
2023-02-14T05:09:34.264Z,40.13
2023-02-14T05:12:02.741Z,38.85
2023-02-14T05:14:33.952Z,38.50
2023-02-14T05:17:06.239Z,41.08
2023-02-14T05:19:36.585Z,36.30
2023-02-14T05:22:05.743Z,36.00
2023-02-14T05:24:34.489Z,38.47
2023-02-14T05:27:03.374Z,38.17
2023-02-14T05:29:33.028Z,36.88
2023-02-14T05:32:05.693Z,36.08
2023-02-14T05:34:35.901Z,38.05
2023-02-14T05:37:07.308Z,38.10
2023-02-14T05:39:36.518Z,38.03
2023-02-14T05:44:36.106Z,36.33
2023-02-14T05:47:04.758Z,37.83
2023-02-14T05:49:38.518Z,38.70
2023-02-14T05:52:07.863Z,39.67
2023-02-14T05:54:36.893Z,38.30
2023-02-14T05:57:06.429Z,40.65
2023-02-14T05:59:35.124Z,39.20
2023-02-14T06:02:06.257Z,37.50
2023-02-14T06:04:36.490Z,36.35
2023-02-14T06:07:06.563Z,38.75
2023-02-14T06:09:38.180Z,36.88
2023-02-14T06:12:10.682Z,37.88
2023-02-14T06:14:41.506Z,38.38
2023-02-14T06:17:10.664Z,38.13
2023-02-14T06:19:43.602Z,37.30
2023-02-14T06:22:12.329Z,38.13
2023-02-14T06:24:41.157Z,41.15
2023-02-14T06:27:09.867Z,38.60
2023-02-14T06:29:38.484Z,39.28
2023-02-14T06:32:07.593Z,35.90
2023-02-14T06:34:39.004Z,39.85
2023-02-14T06:37:09.112Z,38.08
2023-02-14T06:39:39.269Z,37.75
2023-02-14T06:42:07.921Z,39.47
2023-02-14T06:44:36.627Z,37.90
2023-02-14T06:47:06.010Z,40.17
2023-02-14T06:49:34.625Z,39.55
2023-02-14T06:52:03.348Z,35.70
2023-02-14T06:54:33.467Z,38.53
2023-02-14T06:57:03.527Z,39.33
2023-02-14T06:59:31.961Z,38.33
2023-02-14T07:02:00.618Z,37.90
2023-02-14T07:04:29.100Z,39.22
2023-02-14T07:06:57.775Z,38.38
2023-02-14T07:09:26.459Z,38.58
2023-02-14T07:11:56.770Z,38.90
2023-02-14T07:14:27.598Z,40.20
2023-02-14T07:16:56.456Z,38.13
2023-02-14T07:19:25.283Z,39.47
2023-02-14T07:21:53.815Z,40.90
2023-02-14T07:24:22.401Z,39.38
2023-02-14T07:26:50.896Z,39.03
2023-02-14T07:29:21.023Z,39.38
2023-02-14T07:31:49.809Z,40.97
2023-02-14T07:34:18.357Z,39.95
2023-02-14T07:36:46.932Z,43.20
2023-02-14T07:39:15.528Z,40.92
2023-02-14T07:41:44.012Z,43.45
2023-02-14T07:44:12.857Z,41.53
2023-02-14T07:46:42.927Z,41.65
2023-02-14T07:49:12.018Z,42.53
2023-02-14T07:51:40.864Z,42.05
2023-02-14T07:54:10.395Z,41.08
2023-02-14T07:56:39.361Z,42.42
2023-02-14T07:59:08.135Z,44.28
2023-02-14T08:01:37.495Z,43.55
2023-02-14T08:04:07.807Z,45.95
2023-02-14T08:06:36.585Z,45.38
2023-02-14T08:09:05.349Z,45.72
2023-02-14T08:11:51.331Z,44.25
2023-02-14T08:14:20.159Z,44.90
2023-02-14T08:16:48.940Z,47.20
2023-02-14T08:19:18.883Z,47.72
2023-02-14T08:21:47.647Z,48.53
2023-02-14T08:24:16.202Z,49.55
2023-02-14T08:26:44.696Z,50.03
2023-02-14T08:29:15.007Z,51.85
2023-02-14T08:31:45.526Z,55.33
2023-02-14T08:34:14.476Z,55.58
2023-02-14T08:36:44.925Z,54.75
2023-02-14T08:39:13.366Z,52.97
2023-02-14T08:41:46.963Z,57.08
2023-02-14T08:44:16.719Z,58.72
2023-02-14T08:46:45.386Z,58.00
2023-02-14T08:49:13.994Z,59.63
2023-02-14T08:51:45.150Z,56.67
2023-02-14T08:54:13.795Z,59.42
2023-02-14T08:56:42.465Z,62.20
2023-02-14T08:59:11.367Z,63.38
2023-02-14T09:01:39.914Z,61.10
2023-02-14T09:04:08.500Z,64.30
2023-02-14T09:06:39.730Z,64.57
2023-02-14T09:09:09.792Z,62.22
2023-02-14T09:11:38.944Z,62.70
2023-02-14T09:14:07.594Z,61.10
2023-02-14T09:16:36.503Z,62.13
2023-02-14T09:19:05.362Z,60.08
2023-02-14T09:21:37.853Z,59.20
2023-02-14T09:24:08.351Z,59.67
2023-02-14T09:26:40.865Z,56.65
2023-02-14T09:29:11.520Z,58.53
2023-02-14T09:31:40.256Z,55.05
2023-02-14T09:34:26.574Z,53.42
2023-02-14T09:36:55.603Z,48.88
2023-02-14T09:39:25.877Z,47.65
2023-02-14T09:42:28.314Z,45.90
2023-02-14T09:45:02.487Z,43.35
2023-02-14T09:47:41.066Z,41.88
2023-02-14T09:50:20.871Z,39.50
2023-02-14T09:52:53.617Z,37.10
2023-02-14T09:55:33.886Z,35.50
2023-02-14T09:58:12.131Z,34.03
2023-02-14T10:00:48.826Z,33.78
2023-02-14T10:04:07.179Z,32.47
2023-02-14T10:06:53.658Z,29.75
2023-02-14T10:09:50.238Z,28.38
2023-02-14T10:12:26.415Z,28.75
2023-02-14T10:14:57.921Z,28.88
2023-02-14T10:17:37.616Z,26.30
2023-02-14T10:20:17.815Z,27.50
2023-02-14T10:22:56.287Z,27.67
2023-02-14T10:25:30.201Z,27.10
2023-02-14T10:28:02.769Z,28.63
2023-02-14T10:30:40.019Z,28.08
2023-02-14T10:33:17.781Z,26.95
2023-02-14T10:35:50.434Z,29.65
2023-02-14T10:38:42.462Z,29.52
2023-02-14T10:41:33.169Z,29.50
2023-02-14T10:44:20.500Z,29.70
2023-02-14T10:46:57.812Z,29.45
2023-02-14T10:49:40.758Z,29.73
2023-02-14T10:52:19.440Z,29.35
2023-02-14T10:54:55.671Z,29.02
2023-02-14T10:57:30.486Z,31.10
2023-02-14T11:00:05.170Z,30.75
2023-02-14T11:02:37.688Z,31.20
2023-02-14T11:05:07.642Z,31.73
2023-02-14T11:07:36.480Z,30.48
2023-02-14T11:10:11.308Z,31.67
2023-02-14T11:12:42.255Z,32.55
2023-02-14T11:15:24.739Z,31.20
2023-02-14T11:18:16.242Z,32.72
2023-02-14T11:20:44.810Z,34.17
2023-02-14T11:23:21.329Z,33.08
2023-02-14T11:25:57.354Z,33.78
2023-02-14T11:28:25.989Z,32.80
2023-02-14T11:30:56.781Z,32.22
2023-02-14T11:33:39.709Z,31.75
2023-02-14T11:36:14.375Z,33.00
2023-02-14T11:38:45.333Z,32.85
2023-02-14T11:41:18.171Z,33.13
2023-02-14T11:43:49.311Z,32.03
2023-02-14T11:46:30.529Z,32.33
2023-02-14T11:49:02.539Z,31.33
2023-02-14T11:51:35.388Z,31.60
2023-02-14T11:54:06.743Z,31.20
2023-02-14T11:56:57.924Z,31.17
2023-02-14T11:59:32.739Z,30.05
2023-02-14T12:02:21.387Z,30.52
2023-02-14T12:04:54.205Z,30.80
2023-02-14T12:07:29.734Z,29.60
2023-02-14T12:10:24.999Z,31.05
2023-02-14T12:13:03.082Z,29.67
2023-02-14T12:15:36.883Z,31.02
2023-02-14T12:18:58.515Z,29.77
2023-02-14T12:21:48.079Z,30.15
2023-02-14T12:24:30.853Z,29.88
2023-02-14T12:27:15.860Z,30.73
2023-02-14T12:29:50.444Z,28.80
2023-02-14T12:32:24.488Z,27.93
2023-02-14T12:35:03.425Z,29.02
2023-02-14T12:37:45.526Z,27.55
2023-02-14T12:40:28.981Z,29.60
2023-02-14T12:43:26.727Z,27.85
2023-02-14T12:46:21.769Z,29.05
2023-02-14T12:49:34.905Z,28.77
2023-02-14T12:52:26.692Z,26.77
2023-02-14T12:55:24.651Z,28.45
2023-02-14T12:58:01.676Z,26.70
2023-02-14T13:00:43.813Z,27.55
2023-02-14T13:03:43.906Z,25.65
2023-02-14T13:06:21.371Z,26.30
2023-02-14T13:09:14.956Z,25.30
2023-02-14T13:11:59.924Z,27.50
2023-02-14T13:14:46.726Z,27.70
2023-02-14T13:17:28.428Z,27.45
2023-02-14T13:20:09.956Z,26.75
2023-02-14T13:22:41.715Z,27.88
2023-02-14T13:25:31.736Z,30.38
2023-02-14T13:28:03.071Z,26.90
2023-02-14T13:30:35.202Z,25.63
2023-02-14T13:33:10.935Z,26.15
2023-02-14T13:35:40.931Z,26.95
2023-02-14T13:38:16.616Z,25.25
2023-02-14T13:40:48.432Z,25.38
2023-02-14T13:43:59.546Z,25.58
2023-02-14T13:46:53.325Z,25.80
2023-02-14T13:49:34.637Z,26.42
2023-02-14T13:52:06.603Z,25.98
2023-02-14T13:54:47.652Z,25.42
2023-02-14T13:57:34.062Z,25.40
2023-02-14T14:00:43.202Z,25.50
2023-02-14T14:03:16.408Z,24.85
2023-02-14T14:06:07.877Z,25.00
2023-02-14T14:08:41.405Z,24.42
2023-02-14T14:11:58.837Z,24.50
2023-02-14T14:14:41.161Z,23.27
2023-02-14T14:17:29.098Z,24.00
2023-02-14T14:19:58.154Z,24.23
2023-02-14T14:22:27.900Z,24.90
2023-02-14T14:25:03.998Z,24.23
2023-02-14T14:27:36.973Z,23.33
2023-02-14T14:30:08.844Z,24.30
2023-02-14T14:32:40.328Z,23.70
2023-02-14T14:35:19.706Z,24.55
2023-02-14T14:37:54.597Z,23.70
2023-02-14T14:40:28.906Z,24.23
2023-02-14T14:43:03.170Z,23.98
2023-02-14T14:45:32.643Z,25.00
2023-02-14T14:48:12.401Z,23.90
2023-02-14T14:50:46.577Z,23.73
2023-02-14T14:55:52.373Z,23.33
2023-02-14T14:58:40.741Z,23.00
2023-02-14T15:01:16.130Z,22.77
2023-02-14T15:03:46.110Z,22.95
2023-02-14T15:06:20.546Z,25.23
2023-02-14T15:08:51.638Z,27.95
2023-02-14T15:11:41.884Z,24.65
2023-02-14T15:14:19.894Z,22.88
2023-02-14T15:16:52.584Z,23.52
2023-02-14T15:19:33.550Z,22.92
2023-02-14T15:22:03.855Z,22.48
2023-02-14T15:24:35.447Z,23.98
2023-02-14T15:27:05.485Z,22.55
2023-02-14T15:29:35.447Z,23.60
2023-02-14T15:32:04.536Z,22.95
2023-02-14T15:34:38.482Z,29.05
2023-02-14T15:37:08.068Z,30.40
2023-02-14T15:39:41.667Z,31.95
2023-02-14T15:42:25.886Z,31.08
2023-02-14T15:45:17.262Z,30.88
2023-02-14T15:47:50.215Z,30.58
2023-02-14T15:50:25.388Z,31.63
2023-02-14T15:52:57.011Z,31.95
2023-02-14T15:55:28.841Z,31.63
2023-02-14T15:58:01.069Z,31.90
2023-02-14T16:00:31.714Z,31.48
2023-02-14T16:03:06.118Z,33.17
2023-02-14T16:05:36.753Z,32.67
2023-02-14T16:08:08.898Z,33.13
2023-02-14T16:10:40.122Z,33.28
2023-02-14T16:13:20.592Z,32.97
2023-02-14T16:15:59.726Z,33.78
2023-02-14T16:18:39.197Z,33.78
2023-02-14T16:21:23.650Z,35.05
2023-02-14T16:24:13.910Z,35.50
2023-02-14T16:26:44.759Z,34.97
2023-02-14T16:29:16.148Z,36.67
2023-02-14T16:32:12.045Z,36.97
2023-02-14T16:34:38.614Z,34.75
2023-02-14T16:37:19.150Z,38.33
2023-02-14T16:39:48.126Z,37.40
2023-02-14T16:42:19.316Z,36.00
2023-02-14T16:44:48.517Z,37.97
2023-02-14T16:47:19.532Z,37.83
2023-02-14T16:49:48.748Z,38.60
2023-02-14T16:52:23.934Z,37.53
2023-02-14T16:57:27.458Z,37.88
2023-02-14T16:59:57.819Z,39.92
2023-02-14T17:02:28.488Z,39.70
2023-02-14T17:04:57.496Z,40.35
2023-02-14T17:07:30.558Z,36.95
2023-02-14T17:10:06.375Z,38.80
2023-02-14T17:12:41.928Z,38.10
2023-02-14T17:15:17.248Z,38.38
2023-02-14T17:20:20.061Z,38.58
2023-02-14T17:22:49.954Z,39.15
2023-02-14T17:25:18.778Z,38.90
2023-02-14T17:27:58.508Z,41.00
2023-02-14T17:30:27.214Z,39.65
2023-02-14T17:32:55.688Z,41.22
2023-02-14T17:35:24.342Z,41.92
2023-02-14T17:37:55.088Z,42.70
2023-02-14T17:40:24.192Z,42.58
2023-02-14T17:42:54.611Z,45.10
2023-02-14T17:45:24.420Z,41.95
2023-02-14T17:47:54.072Z,43.42
2023-02-14T17:50:23.473Z,42.40
2023-02-14T17:52:56.861Z,42.38
2023-02-14T17:55:26.022Z,43.63
2023-02-14T17:57:54.649Z,42.55
2023-02-14T18:00:24.826Z,44.15
2023-02-14T18:02:53.540Z,45.10
2023-02-14T18:05:22.027Z,44.50
2023-02-14T18:07:52.913Z,42.47
2023-02-14T18:10:23.043Z,43.60
2023-02-14T18:12:51.713Z,45.83
2023-02-14T18:15:21.034Z,46.15
2023-02-14T18:17:51.782Z,43.90
2023-02-14T18:20:23.240Z,47.10
2023-02-14T18:22:51.907Z,47.00
2023-02-14T18:25:20.898Z,45.22
2023-02-14T18:27:50.904Z,47.03
2023-02-14T18:30:20.056Z,45.08
2023-02-14T18:32:48.821Z,45.63
2023-02-14T18:35:17.969Z,45.47
2023-02-14T18:37:46.551Z,48.88
2023-02-14T18:40:20.233Z,48.40
2023-02-14T18:42:50.364Z,42.97
2023-02-14T18:45:19.513Z,44.97
2023-02-14T18:47:48.216Z,46.72
2023-02-14T18:50:17.568Z,46.08
2023-02-14T18:52:46.594Z,44.70
2023-02-14T18:55:15.654Z,49.65
2023-02-14T18:57:44.887Z,52.60
2023-02-14T19:00:18.558Z,47.03
2023-02-14T19:02:47.850Z,49.13
2023-02-14T19:05:16.872Z,44.55
2023-02-14T19:07:46.298Z,45.33
2023-02-14T19:10:14.980Z,44.78
2023-02-14T19:12:43.976Z,46.72
2023-02-14T19:15:17.631Z,47.75
2023-02-14T19:17:46.241Z,45.00
2023-02-14T19:20:16.591Z,44.45
2023-02-14T19:22:45.578Z,44.13
2023-02-14T19:25:14.271Z,46.58
2023-02-14T19:27:43.226Z,50.22
2023-02-14T19:30:12.788Z,46.53
2023-02-14T19:32:43.120Z,41.83
2023-02-14T19:35:11.901Z,42.25
2023-02-14T19:37:40.656Z,43.05
2023-02-14T19:40:11.590Z,43.30
2023-02-14T19:42:40.106Z,43.25
2023-02-14T19:45:09.669Z,40.63
2023-02-14T19:47:47.015Z,42.92
2023-02-14T19:50:19.434Z,43.45
2023-02-14T19:53:07.633Z,43.40
2023-02-14T19:55:36.677Z,55.78
2023-02-14T19:58:05.820Z,49.38
2023-02-14T20:00:35.291Z,46.92
2023-02-14T20:03:06.240Z,45.70
2023-02-14T20:05:39.965Z,51.08
2023-02-14T20:08:09.786Z,51.88
2023-02-14T20:10:38.657Z,48.13
2023-02-14T20:13:08.846Z,48.83
2023-02-14T20:15:38.422Z,50.28
2023-02-14T20:18:07.899Z,48.22
2023-02-14T20:20:52.013Z,48.95
2023-02-14T20:23:21.180Z,50.35
2023-02-14T20:25:49.829Z,50.67
2023-02-14T20:28:18.532Z,49.60
2023-02-14T20:30:47.197Z,48.38
2023-02-14T20:33:16.240Z,52.33
2023-02-14T20:35:46.399Z,47.97
2023-02-14T20:38:15.166Z,49.95
2023-02-14T20:40:44.632Z,50.67
2023-02-14T20:43:13.348Z,53.65
2023-02-14T20:45:41.978Z,50.95
2023-02-14T20:48:11.044Z,49.67
2023-02-14T20:50:42.653Z,52.03
2023-02-14T20:53:12.931Z,50.53
2023-02-14T20:55:44.949Z,48.83
2023-02-14T20:58:13.756Z,50.38
2023-02-14T21:00:42.665Z,54.45
2023-02-14T21:03:11.200Z,50.67
2023-02-14T21:05:40.527Z,49.95
2023-02-14T21:08:13.615Z,47.13
2023-02-14T21:10:43.878Z,51.08
2023-02-14T21:13:12.642Z,51.38
2023-02-14T21:15:41.276Z,51.17
2023-02-14T21:18:10.215Z,48.22
2023-02-14T21:20:39.118Z,48.53
2023-02-14T21:23:07.688Z,47.05
2023-02-14T21:25:38.058Z,47.85
2023-02-14T21:28:06.646Z,63.78
2023-02-14T21:30:35.418Z,46.97
2023-02-14T21:33:04.369Z,47.22
2023-02-14T21:35:32.864Z,49.05
2023-02-14T21:38:01.460Z,48.08
2023-02-14T21:40:30.058Z,46.50
2023-02-14T21:43:03.933Z,48.67
2023-02-14T21:45:49.951Z,48.17
2023-02-14T21:48:35.824Z,46.28
2023-02-14T21:51:07.792Z,47.60
2023-02-14T21:53:36.618Z,48.33
2023-02-14T21:56:10.588Z,47.08
2023-02-14T21:58:44.122Z,48.92
2023-02-14T22:01:18.334Z,48.05
2023-02-14T22:03:47.744Z,49.22
2023-02-14T22:06:17.132Z,49.45
2023-02-14T22:08:46.154Z,50.45
2023-02-14T22:11:17.449Z,48.47
2023-02-14T22:13:47.676Z,47.90
2023-02-14T22:16:20.806Z,44.35
2023-02-14T22:19:06.146Z,44.47
2023-02-14T22:21:35.026Z,42.30
2023-02-14T22:24:04.088Z,44.80
2023-02-14T22:26:38.696Z,44.90
2023-02-14T22:29:12.010Z,46.65
2023-02-14T22:31:44.383Z,45.95
2023-02-14T22:34:17.752Z,49.20
2023-02-14T22:36:46.831Z,47.55
2023-02-14T22:39:17.577Z,45.03
2023-02-14T22:41:48.823Z,43.55
2023-02-14T22:44:19.639Z,45.78
2023-02-14T22:46:49.389Z,46.72
2023-02-14T22:49:18.023Z,46.20
2023-02-14T22:51:46.821Z,47.10
2023-02-14T22:54:17.646Z,48.40
2023-02-14T22:56:50.250Z,50.63
2023-02-14T22:59:23.339Z,50.65
2023-02-14T23:01:54.211Z,48.90
2023-02-14T23:04:27.118Z,52.08
2023-02-14T23:06:55.808Z,48.17
2023-02-14T23:09:25.580Z,51.35
2023-02-14T23:11:54.056Z,52.17
2023-02-14T23:14:41.241Z,51.72
2023-02-14T23:17:36.773Z,51.70
2023-02-14T23:20:23.364Z,49.80
2023-02-14T23:22:52.192Z,51.33
2023-02-14T23:25:21.071Z,49.97
2023-02-14T23:27:49.899Z,49.83
2023-02-14T23:30:21.198Z,50.67
2023-02-14T23:32:49.805Z,50.60
2023-02-14T23:35:18.668Z,50.58
2023-02-14T23:37:47.878Z,50.47
2023-02-14T23:40:16.652Z,47.47
2023-02-14T23:42:45.339Z,47.83
2023-02-14T23:45:31.653Z,45.08
2023-02-14T23:48:05.651Z,47.45
2023-02-14T23:50:34.509Z,46.85
2023-02-14T23:53:03.121Z,47.67
2023-02-14T23:55:31.999Z,52.70
2023-02-14T23:58:01.349Z,50.17
